Hlavní strana
METAR-TAF:

METAR-TAF

Letiště :

San Francisco International Airport

San Francisco, Kalifornie, Spojené státy americké

zeměpisná šířka: 37-37-11N, zeměpisná délka: 122-21-53W, výška: 3 m

Aktuální stav počasí

Zpráva byla vytvořena před 38 minutami, v 03:56 UTC
Západní vítr 5 kt
Teplota 12°C
Vlhkost vzduchu 67%
Tlak 1015 hPa
Viditelnost: 4.8 km
Polojasno ve výšce 1900 ft
zákal

METAR: KSFO 170356Z 28005KT 3SM HZ SCT019 12/06 A2997 RMK AO2 SLP147 T01220061

Čas: 20:34 (04:34 UTC)

Předpověď počasí

Zpráva byla vytvořena před 19 minutami, v 04:15 UTC
Předpověď platná od 17 v 04 UTC do 18 v 06 UTC
Západní vítr 6 kt
Viditelnost: 4.8 km
Polojasno ve výšce 1500 ft
kouř, zákal
Od 17 v 0500 UTC
vítr z různých směrů 3 kt
Viditelnost: 4.8 km
Polojasno ve výšce 1500 ft
kouř, zákal
Od 17 v 2300 UTC
Západní vítr 6 kt
Viditelnost: 8.0 km
Skoro jasno ve výšce 700 ft
kouř, zákal

TAF: KSFO 170415Z 1704/1806 27006KT 3SM FU HZ SCT015 FM170500 VRB03KT 3SM FU HZ SCT015 FM172300 27006KT 5SM FU HZ FEW007

Stav a předpovědi počasí z více než 4 000 letišť (zprávy METAR a TAF).

Červené a žluté tečky na mapě představují dostupné meteorologické stanice.

Když kurzor umístíte na tečku, zobrazí se název stanice.

Pak kliknutím zobrazíte stav a předpověď počasí.

Chcete-li změnit mapu, kliknutím na zelené tlačítko se znaménkem +mapu přiblížíte, kliknutím na zelené tlačítko se znaménkem – mapu oddálíte a kliknutím na zelené šipky přejdete na sousední mapy.


METAR-TAF: